Time;durP1;ratioP1;P1;durP2;ratioP2;P2;SDS_P1;SDS_P2;PMS_P1;PMS_P2;Temp;Humidity;BMP_temperature;BMP_pressure;BME280_temperature;BME280_humidity;BME280_pressure;Samples;Min_cycle;Max_cycle;Signal;HPM_P1;HPM_P2
2021/12/29 00:01:02;;;;;;;;;;;12.70;99.90;;;;;;6367589;22;19903;-95
2021/12/29 00:03:41;;;;;;;;;;;12.70;99.90;;;;;;6395861;22;19907;-95
2021/12/29 00:06:27;;;;;;;;;;;12.80;99.90;;;;;;6365714;22;19909;-94
2021/12/29 00:09:05;;;;;;;;;;;12.80;99.90;;;;;;6393332;22;19917;-95
2021/12/29 00:11:37;;;;;;;;;;;12.80;99.90;;;;;;6368116;22;19902;-94
2021/12/29 00:14:31;;;;;;;;;;;12.80;99.90;;;;;;6394055;22;19918;-94
2021/12/29 00:17:02;;;;;;;;;;;12.80;99.90;;;;;;6273925;22;19941;-92
2021/12/29 00:19:52;;;;;;;;;;;12.90;99.90;;;;;;6300759;22;19910;-92
2021/12/29 00:22:26;;;;;;;;;;;12.90;99.90;;;;;;6273461;22;19907;-94
2021/12/29 00:24:56;;;;;;;;;;;13.00;99.90;;;;;;6272824;22;19911;-92
2021/12/29 00:27:35;;;;;;;;;;;12.90;99.90;;;;;;6276247;22;19903;-92
2021/12/29 00:30:02;;;;;;;;;;;13.00;99.90;;;;;;6274128;22;19915;-93
2021/12/29 00:33:03;;;;;;;;;;;13.00;99.90;;;;;;6219520;23;19918;-94
2021/12/29 00:35:34;;;;;;;;;;;13.10;99.90;;;;;;6193355;23;19916;-91
2021/12/29 00:38:02;;;;;;;;;;;13.20;99.90;;;;;;6215567;23;19888;-92
2021/12/29 00:40:29;;;;;;;;;;;13.10;99.90;;;;;;6211580;23;19904;-91
2021/12/29 00:42:58;;;;;;;;;;;13.20;99.90;;;;;;6212379;23;19930;-93
2021/12/29 00:45:53;;;;;;;;;;;13.30;99.90;;;;;;6214016;23;19903;-92
2021/12/29 00:48:28;;;;;;;;;;;13.30;99.90;;;;;;6189623;23;19908;-92
2021/12/29 00:51:08;;;;;;;;;;;;;;;;;;;;;
2021/12/29 00:54:01;;;;;;;;;;;13.40;99.90;;;;;;6236756;23;19912;-92
2021/12/29 00:56:34;;;;;;;;;;;13.40;99.90;;;;;;6220548;23;19939;-92
2021/12/29 00:59:04;;;;;;;;;;;13.50;99.90;;;;;;6243768;23;19891;-93
2021/12/29 01:01:45;;;;;;;;;;;13.50;99.90;;;;;;6241113;23;19907;-92
2021/12/29 01:04:22;;;;;;;;;;;13.50;99.90;;;;;;6284648;22;19907;-93
2021/12/29 01:07:01;;;;;;;;;;;;;;;;;;;;;
2021/12/29 01:09:55;;;;;;;;;;;;;;;;;;;;;
2021/12/29 01:12:56;;;;;;;;;;;;;;;;;;;;;
2021/12/29 01:18:44;;;;;;;;;;;13.80;99.90;;;;;;6359469;22;19907;-94
2021/12/29 01:21:34;;;;;;;;;;;14.00;99.90;;;;;;6300029;22;20359;-91
2021/12/29 01:24:08;;;;;;;;;;;13.90;99.90;;;;;;6297871;22;20019;-92
2021/12/29 01:27:03;;;;;;;;;;;14.00;99.90;;;;;;6273271;22;19942;-91
2021/12/29 01:29:32;;;;;;;;;;;14.00;99.90;;;;;;6251714;22;19927;-94
2021/12/29 01:32:13;;;;;;;;;;;;;;;;;;;;;
2021/12/29 01:34:41;;;;;;;;;;;14.10;99.90;;;;;;6297527;22;19903;-94
2021/12/29 01:37:22;;;;;;;;;;;;;;;;;;;;;
2021/12/29 01:39:50;;;;;;;;;;;13.90;99.90;;;;;;6296358;22;19903;-94
2021/12/29 01:42:25;;;;;;;;;;;14.20;99.90;;;;;;6297776;22;19911;-94
2021/12/29 01:45:19;;;;;;;;;;;14.30;99.90;;;;;;6293600;22;19926;-94
2021/12/29 01:47:48;;;;;;;;;;;14.30;99.90;;;;;;6273175;22;19908;-95
2021/12/29 01:50:20;;;;;;;;;;;14.30;99.90;;;;;;6268933;22;20220;-95
2021/12/29 01:52:54;;;;;;;;;;;14.40;99.90;;;;;;6337539;22;19914;-94
2021/12/29 01:55:31;;;;;;;;;;;14.40;99.90;;;;;;6357111;22;19927;-94
2021/12/29 01:57:57;;;;;;;;;;;14.40;99.90;;;;;;6355394;22;19919;-91
2021/12/29 02:00:50;;;;;;;;;;;14.50;99.90;;;;;;6361305;22;19907;-94
2021/12/29 02:03:22;;;;;;;;;;;14.50;99.90;;;;;;6362545;22;19895;-93
2021/12/29 02:05:58;;;;;;;;;;;14.60;99.90;;;;;;6364687;22;19906;-96
2021/12/29 02:08:37;;;;;;;;;;;14.60;99.90;;;;;;6361647;22;19922;-93
2021/12/29 02:11:04;;;;;;;;;;;14.60;99.90;;;;;;6349984;22;19909;-94
2021/12/29 02:13:32;;;;;;;;;;;14.60;99.90;;;;;;6343601;22;19917;-96
2021/12/29 02:16:01;;;;;;;;;;;14.60;99.90;;;;;;6340605;22;20350;-92
2021/12/29 02:18:27;;;;;;;;;;;14.60;99.90;;;;;;6341785;22;19985;-92
2021/12/29 02:20:54;;;;;;;;;;;14.60;99.90;;;;;;6339058;22;19903;-91
2021/12/29 02:23:44;;;;;;;;;;;;;;;;;;;;;
2021/12/29 02:26:42;;;;;;;;;;;;;;;;;;;;;
2021/12/29 02:29:19;;;;;;;;;;;14.70;99.90;;;;;;6304226;22;19913;-94
2021/12/29 02:34:56;;;;;;;;;;;14.70;99.90;;;;;;6351329;22;19918;-94
2021/12/29 02:40:37;;;;;;;;;;;14.70;99.90;;;;;;6306688;22;19917;-93
2021/12/29 02:43:21;;;;;;;;;;;;;;;;;;;;;
2021/12/29 02:46:16;;;;;;;;;;;14.60;99.90;;;;;;6358429;22;19935;-92
2021/12/29 02:48:51;;;;;;;;;;;14.70;99.90;;;;;;6354768;22;19903;-93
2021/12/29 02:54:16;;;;;;;;;;;14.80;99.90;;;;;;6321050;22;19910;-95
2021/12/29 02:56:57;;;;;;;;;;;14.80;99.90;;;;;;6352626;22;19910;-93
2021/12/29 02:59:48;;;;;;;;;;;14.80;99.90;;;;;;6356143;22;19932;-92
2021/12/29 03:02:57;;;;;;;;;;;14.80;99.90;;;;;;6291469;22;19907;-93
2021/12/29 03:05:52;;;;;;;;;;;14.80;99.90;;;;;;6263405;22;19938;-92
2021/12/29 03:08:18;;;;;;;;;;;14.80;99.90;;;;;;6265428;22;19891;-93
2021/12/29 03:10:44;;;;;;;;;;;14.90;99.90;;;;;;6261256;22;19910;-93
2021/12/29 03:13:09;;;;;;;;;;;14.80;99.90;;;;;;6264166;22;19908;-92
2021/12/29 03:15:56;;;;;;;;;;;14.90;99.90;;;;;;6264542;22;20232;-91
2021/12/29 03:18:25;;;;;;;;;;;14.90;99.90;;;;;;6230419;23;19908;-93
2021/12/29 03:20:51;;;;;;;;;;;14.90;99.90;;;;;;6228134;23;19910;-94
2021/12/29 03:23:17;;;;;;;;;;;14.90;99.90;;;;;;6238117;23;19903;-94
2021/12/29 03:25:43;;;;;;;;;;;14.90;99.90;;;;;;6243285;23;19907;-92
2021/12/29 03:28:19;;;;;;;;;;;14.90;99.90;;;;;;6241914;23;19914;-94
2021/12/29 03:31:01;;;;;;;;;;;14.80;99.90;;;;;;6246243;23;19891;-90
2021/12/29 03:33:47;;;;;;;;;;;14.90;99.90;;;;;;6317958;22;19891;-91
2021/12/29 03:36:28;;;;;;;;;;;14.90;99.90;;;;;;6332063;22;19947;-90
2021/12/29 03:39:38;;;;;;;;;;;14.90;99.90;;;;;;6335121;22;19887;-90
2021/12/29 03:42:24;;;;;;;;;;;14.90;99.90;;;;;;6304840;22;19891;-89
2021/12/29 03:44:50;;;;;;;;;;;14.90;99.90;;;;;;6305663;22;19892;-91
2021/12/29 03:47:15;;;;;;;;;;;14.90;99.90;;;;;;6332470;22;19907;-92
2021/12/29 03:49:57;;;;;;;;;;;14.80;99.90;;;;;;6332610;22;19887;-91
2021/12/29 03:52:25;;;;;;;;;;;14.80;99.90;;;;;;6302871;22;19998;-95
2021/12/29 03:54:52;;;;;;;;;;;14.80;99.90;;;;;;6298559;22;19913;-93
2021/12/29 03:57:18;;;;;;;;;;;14.80;99.90;;;;;;6326561;22;19914;-95
2021/12/29 03:59:47;;;;;;;;;;;14.80;99.90;;;;;;6328839;22;19910;-93
2021/12/29 04:02:42;;;;;;;;;;;14.90;99.90;;;;;;6307037;22;19941;-90
2021/12/29 04:05:09;;;;;;;;;;;14.80;99.90;;;;;;6294304;22;19950;-92
2021/12/29 04:07:47;;;;;;;;;;;14.90;99.90;;;;;;6332660;22;19887;-92
2021/12/29 04:10:14;;;;;;;;;;;14.90;99.90;;;;;;6352332;22;19917;-93
2021/12/29 04:12:48;;;;;;;;;;;14.80;99.90;;;;;;6361831;22;19922;-89
2021/12/29 04:15:17;;;;;;;;;;;14.90;99.90;;;;;;6352342;22;19906;-92
2021/12/29 04:17:44;;;;;;;;;;;14.80;99.90;;;;;;6351765;22;19902;-95
2021/12/29 04:22:56;;;;;;;;;;;14.80;99.90;;;;;;6352053;22;19925;-92
2021/12/29 04:25:25;;;;;;;;;;;14.90;99.90;;;;;;6345013;22;19903;-89
2021/12/29 04:27:56;;;;;;;;;;;14.90;99.90;;;;;;6354151;22;19903;-89
2021/12/29 04:30:22;;;;;;;;;;;14.90;99.90;;;;;;6349257;22;19902;-90
2021/12/29 04:32:48;;;;;;;;;;;14.90;99.90;;;;;;6354771;22;19907;-91
2021/12/29 04:35:14;;;;;;;;;;;14.90;99.90;;;;;;6349422;22;19928;-94
2021/12/29 04:37:44;;;;;;;;;;;14.90;99.90;;;;;;6347548;22;19928;-88
2021/12/29 04:40:09;;;;;;;;;;;15.00;99.90;;;;;;6340785;22;19906;-91
2021/12/29 04:42:35;;;;;;;;;;;14.90;99.90;;;;;;6342002;22;19903;-93
2021/12/29 04:45:01;;;;;;;;;;;14.90;99.90;;;;;;6347894;22;20235;-93
2021/12/29 04:47:30;;;;;;;;;;;15.00;99.90;;;;;;6345303;22;19902;-94
2021/12/29 04:50:00;;;;;;;;;;;15.00;99.90;;;;;;6336300;22;19907;-94
2021/12/29 04:52:26;;;;;;;;;;;15.00;99.90;;;;;;6334471;22;19909;-92
2021/12/29 04:54:52;;;;;;;;;;;15.00;99.90;;;;;;6337500;22;19959;-94
2021/12/29 04:57:17;;;;;;;;;;;15.00;99.90;;;;;;6360745;22;19926;-94
2021/12/29 04:59:43;;;;;;;;;;;15.00;99.90;;;;;;6339517;22;19903;-93
2021/12/29 05:02:09;;;;;;;;;;;15.00;99.90;;;;;;6369774;22;19948;-95
2021/12/29 05:04:44;;;;;;;;;;;15.00;99.90;;;;;;6369271;22;19902;-88
2021/12/29 05:09:55;;;;;;;;;;;15.00;99.90;;;;;;6368519;22;20228;-94
2021/12/29 05:12:20;;;;;;;;;;;15.00;99.90;;;;;;6367497;22;20322;-94
2021/12/29 05:14:46;;;;;;;;;;;15.00;99.90;;;;;;6367576;22;19911;-92
2021/12/29 05:17:11;;;;;;;;;;;15.00;99.90;;;;;;6367564;22;20238;-92
2021/12/29 05:19:37;;;;;;;;;;;15.00;99.90;;;;;;6338691;22;19909;-92
2021/12/29 05:22:03;;;;;;;;;;;15.00;99.90;;;;;;6367072;22;19902;-94
2021/12/29 05:24:29;;;;;;;;;;;15.00;99.90;;;;;;6366553;22;20342;-91
2021/12/29 05:26:54;;;;;;;;;;;15.00;99.90;;;;;;6366263;22;19909;-95
2021/12/29 05:29:20;;;;;;;;;;;15.00;99.90;;;;;;6366855;22;19911;-93
2021/12/29 05:31:45;;;;;;;;;;;15.00;99.90;;;;;;6367708;22;19909;-93
2021/12/29 05:34:11;;;;;;;;;;;15.10;99.90;;;;;;6367882;22;19945;-93
2021/12/29 05:36:38;;;;;;;;;;;15.10;99.90;;;;;;6370518;22;19903;-88
2021/12/29 05:39:04;;;;;;;;;;;15.00;99.90;;;;;;6372785;22;19902;-91
2021/12/29 05:41:29;;;;;;;;;;;15.00;99.90;;;;;;6369250;22;20219;-93
2021/12/29 05:43:55;;;;;;;;;;;15.10;99.90;;;;;;6370331;22;19910;-90
2021/12/29 05:46:20;;;;;;;;;;;15.00;99.90;;;;;;6349009;22;19909;-89
2021/12/29 05:48:46;;;;;;;;;;;15.10;99.90;;;;;;6345226;22;19902;-92
2021/12/29 05:51:13;;;;;;;;;;;15.10;99.90;;;;;;6380834;22;19902;-90
2021/12/29 05:53:40;;;;;;;;;;;15.10;99.90;;;;;;6354824;22;19907;-91
2021/12/29 05:56:06;;;;;;;;;;;15.10;99.90;;;;;;6353875;22;19918;-94
2021/12/29 05:58:31;;;;;;;;;;;15.10;99.90;;;;;;6379788;22;19893;-89
2021/12/29 06:00:58;;;;;;;;;;;15.10;99.90;;;;;;6345587;22;20216;-90
2021/12/29 06:03:24;;;;;;;;;;;15.10;99.90;;;;;;6347079;22;19986;-89
2021/12/29 06:05:50;;;;;;;;;;;15.10;99.90;;;;;;6350249;22;19911;-91
2021/12/29 06:08:16;;;;;;;;;;;15.20;99.90;;;;;;6375301;22;19902;-91
2021/12/29 06:10:41;;;;;;;;;;;15.20;99.90;;;;;;6342002;22;19981;-90
2021/12/29 06:13:07;;;;;;;;;;;15.20;99.90;;;;;;6368362;22;19917;-89
2021/12/29 06:15:33;;;;;;;;;;;15.20;99.90;;;;;;6344534;22;19902;-91
2021/12/29 06:17:58;;;;;;;;;;;15.20;99.90;;;;;;6343880;22;19906;-92
2021/12/29 06:20:24;;;;;;;;;;;15.20;99.90;;;;;;6340491;22;19902;-90
2021/12/29 06:22:50;;;;;;;;;;;15.30;99.90;;;;;;6344355;22;20329;-91
2021/12/29 06:25:16;;;;;;;;;;;15.30;99.90;;;;;;6355359;22;19910;-89
2021/12/29 06:27:42;;;;;;;;;;;15.30;99.90;;;;;;6363659;22;19886;-91
2021/12/29 06:30:09;;;;;;;;;;;15.30;99.90;;;;;;6351410;22;19950;-89
2021/12/29 06:32:56;;;;;;;;;;;15.40;99.90;;;;;;6377015;22;19902;-89
2021/12/29 06:35:21;;;;;;;;;;;15.30;99.90;;;;;;6257983;22;19988;-90
2021/12/29 06:37:49;;;;;;;;;;;15.30;99.90;;;;;;6281239;22;19903;-89
2021/12/29 06:40:15;;;;;;;;;;;15.30;99.90;;;;;;6287488;22;19938;-92
2021/12/29 06:42:41;;;;;;;;;;;15.40;99.90;;;;;;6270304;22;19946;-90
2021/12/29 06:45:10;;;;;;;;;;;15.40;99.90;;;;;;6294648;22;19907;-89
2021/12/29 06:47:36;;;;;;;;;;;15.30;99.90;;;;;;6263489;22;19907;-89
2021/12/29 06:50:05;;;;;;;;;;;15.40;99.90;;;;;;6288183;22;19951;-90
2021/12/29 06:52:32;;;;;;;;;;;15.30;99.90;;;;;;6260729;22;19934;-91
2021/12/29 06:54:58;;;;;;;;;;;15.30;99.90;;;;;;6260284;22;20317;-93
2021/12/29 06:57:24;;;;;;;;;;;15.30;99.90;;;;;;6260229;22;19911;-90
2021/12/29 06:59:53;;;;;;;;;;;15.40;99.90;;;;;;6248171;22;19947;-92
2021/12/29 07:02:19;;;;;;;;;;;15.40;99.90;;;;;;6253237;22;19935;-93
2021/12/29 07:04:47;;;;;;;;;;;15.40;99.90;;;;;;6252759;22;20364;-92
2021/12/29 07:07:22;;;;;;;;;;;15.40;99.90;;;;;;6246713;22;19904;-91
2021/12/29 07:09:48;;;;;;;;;;;15.40;99.90;;;;;;6245074;22;20029;-90
2021/12/29 07:12:21;;;;;;;;;;;15.40;99.90;;;;;;6298905;22;19906;-91
2021/12/29 07:14:47;;;;;;;;;;;15.40;99.90;;;;;;6341647;22;19918;-92
2021/12/29 07:17:13;;;;;;;;;;;15.40;99.90;;;;;;6340468;22;19902;-90
2021/12/29 07:19:38;;;;;;;;;;;15.40;99.90;;;;;;6341352;22;20002;-91
2021/12/29 07:22:06;;;;;;;;;;;15.50;99.90;;;;;;6368694;22;20284;-92
2021/12/29 07:24:32;;;;;;;;;;;15.50;99.90;;;;;;6368736;22;20280;-92
2021/12/29 07:26:58;;;;;;;;;;;15.50;99.90;;;;;;6340574;22;19925;-91
2021/12/29 07:29:23;;;;;;;;;;;15.50;99.90;;;;;;6344766;22;19902;-92
2021/12/29 07:31:53;;;;;;;;;;;15.50;99.90;;;;;;6374272;22;19902;-94
2021/12/29 07:34:20;;;;;;;;;;;15.50;99.90;;;;;;6353809;22;19919;-92
2021/12/29 07:36:49;;;;;;;;;;;15.50;99.90;;;;;;6352149;22;19902;-93
2021/12/29 07:39:15;;;;;;;;;;;15.50;99.90;;;;;;6355719;22;19902;-92
2021/12/29 07:41:44;;;;;;;;;;;15.50;99.90;;;;;;6345061;22;19903;-92
2021/12/29 07:44:11;;;;;;;;;;;15.50;99.90;;;;;;6352361;22;19946;-93
2021/12/29 07:46:41;;;;;;;;;;;15.50;99.90;;;;;;6356850;22;19981;-92
2021/12/29 07:49:10;;;;;;;;;;;15.50;99.90;;;;;;6352451;22;19948;-91
2021/12/29 07:51:38;;;;;;;;;;;15.50;99.90;;;;;;6325030;22;20401;-92
2021/12/29 07:54:03;;;;;;;;;;;15.50;99.90;;;;;;6346722;22;19940;-92
2021/12/29 07:56:29;;;;;;;;;;;15.50;99.90;;;;;;6348370;22;20258;-93
2021/12/29 07:58:54;;;;;;;;;;;15.60;99.90;;;;;;6345756;22;19902;-92
2021/12/29 08:01:52;;;;;;;;;;;15.50;99.90;;;;;;6358951;22;19902;-92
2021/12/29 08:04:19;;;;;;;;;;;15.60;99.90;;;;;;6271464;22;19899;-91
2021/12/29 08:06:54;;;;;;;;;;;15.60;99.90;;;;;;6270738;22;19907;-94
2021/12/29 08:09:19;;;;;;;;;;;15.60;99.90;;;;;;6274947;22;19914;-94
2021/12/29 08:11:45;;;;;;;;;;;15.60;99.90;;;;;;6263533;22;19907;-91
2021/12/29 08:14:11;;;;;;;;;;;15.50;99.90;;;;;;6295644;22;19926;-91
2021/12/29 08:16:39;;;;;;;;;;;15.50;99.90;;;;;;6268552;22;19939;-93
2021/12/29 08:19:08;;;;;;;;;;;15.60;99.90;;;;;;6265820;22;20360;-92
2021/12/29 08:21:34;;;;;;;;;;;15.50;99.90;;;;;;6295466;22;19964;-92
2021/12/29 08:24:31;;;;;;;;;;;;;;;;;;;;;
2021/12/29 08:27:04;;;;;;;;;;;15.60;99.90;;;;;;6298402;22;19914;-93
2021/12/29 08:30:08;;;;;;;;;;;15.50;99.90;;;;;;6268584;22;19931;-92
2021/12/29 08:33:06;;;;;;;;;;;15.50;99.90;;;;;;6282473;22;20132;-92
2021/12/29 08:35:33;;;;;;;;;;;15.50;99.90;;;;;;6310117;22;19913;-92
2021/12/29 08:37:58;;;;;;;;;;;15.50;99.90;;;;;;6351333;22;19944;-92
2021/12/29 08:40:25;;;;;;;;;;;15.40;99.90;;;;;;6355772;22;19903;-90
2021/12/29 08:42:55;;;;;;;;;;;15.40;99.90;;;;;;6363166;22;19908;-92
2021/12/29 08:45:54;;;;;;;;;;;;;;;;;;;;;
2021/12/29 08:48:10;;;;;;;;;;;15.40;99.90;;;;;;6266904;23;19955;-93
2021/12/29 08:50:36;;;;;;;;;;;15.50;99.90;;;;;;6350218;22;19906;-94
2021/12/29 08:56:36;;;;;;;;;;;15.50;99.90;;;;;;6297511;22;19975;-90
2021/12/29 08:59:31;;;;;;;;;;;15.50;99.90;;;;;;6368954;22;19906;-92
2021/12/29 09:05:46;;;;;;;;;;;15.50;99.90;;;;;;6337040;22;19968;-94
2021/12/29 09:08:14;;;;;;;;;;;15.50;99.90;;;;;;6368555;22;19942;-94
2021/12/29 09:14:01;;;;;;;;;;;;;;;;;;;;;
2021/12/29 09:16:16;;;;;;;;;;;15.50;99.90;;;;;;6345407;22;19911;-93
2021/12/29 09:19:02;;;;;;;;;;;15.50;99.90;;;;;;6360394;22;19909;-92
2021/12/29 09:21:52;;;;;;;;;;;15.50;99.90;;;;;;6331946;22;19902;-91
2021/12/29 09:24:18;;;;;;;;;;;15.60;99.90;;;;;;6370333;22;19906;-89
2021/12/29 09:26:53;;;;;;;;;;;;;;;;;;;;;
2021/12/29 09:30:00;;;;;;;;;;;15.60;99.90;;;;;;6368034;22;19950;-91
2021/12/29 09:32:31;;;;;;;;;;;15.70;99.90;;;;;;6366539;22;19902;-91
2021/12/29 09:35:02;;;;;;;;;;;15.60;99.90;;;;;;6339362;22;19910;-91
2021/12/29 09:40:25;;;;;;;;;;;15.70;99.90;;;;;;6241286;23;19904;-92
2021/12/29 09:43:22;;;;;;;;;;;15.70;99.90;;;;;;6355883;22;19917;-92
2021/12/29 09:46:07;;;;;;;;;;;;;;;;;;;;;
2021/12/29 09:48:34;;;;;;;;;;;15.60;99.90;;;;;;6367206;22;19982;-92
2021/12/29 09:51:22;;;;;;;;;;;15.70;99.90;;;;;;6339961;22;20394;-92
2021/12/29 09:54:18;;;;;;;;;;;15.70;99.90;;;;;;6339253;22;19911;-92
2021/12/29 10:09:30;;;;;;;;;;;15.90;99.90;;;;;;6240911;23;20038;-92
2021/12/29 10:15:06;;;;;;;;;;;15.90;99.90;;;;;;6085843;23;19913;-91
2021/12/29 10:17:48;;;;;;;;;;;15.90;99.90;;;;;;6214258;23;20359;-91
2021/12/29 10:23:46;;;;;;;;;;;15.90;99.90;;;;;;6089876;23;19909;-92
2021/12/29 10:26:34;;;;;;;;;;;15.90;99.90;;;;;;6096088;23;19904;-92
2021/12/29 10:35:08;;;;;;;;;;;;;;;;;;;;;
2021/12/29 10:37:34;;;;;;;;;;;15.80;99.90;;;;;;6121712;23;19995;-90
2021/12/29 10:40:23;;;;;;;;;;;15.80;99.90;;;;;;6098530;23;20345;-93
2021/12/29 10:43:15;;;;;;;;;;;15.90;99.90;;;;;;6095923;23;19904;-92
2021/12/29 10:49:12;;;;;;;;;;;15.90;99.90;;;;;;6167122;23;19911;-92
2021/12/29 10:52:00;;;;;;;;;;;15.90;99.90;;;;;;6181612;23;19912;-92
2021/12/29 10:55:10;;;;;;;;;;;15.90;99.90;;;;;;6293210;22;19925;-92
2021/12/29 10:57:39;;;;;;;;;;;15.80;99.90;;;;;;6208155;23;19912;-92
2021/12/29 11:06:20;;;;;;;;;;;;;;;;;;;;;
2021/12/29 11:12:25;;;;;;;;;;;;;;;;;;;;;
2021/12/29 11:21:23;;;;;;;;;;;15.90;99.90;;;;;;6008435;23;19916;-91
2021/12/29 11:24:02;;;;;;;;;;;;;;;;;;;;;
2021/12/29 11:27:01;;;;;;;;;;;15.90;99.90;;;;;;6370989;22;19978;-93
2021/12/29 11:32:42;;;;;;;;;;;16.00;99.90;;;;;;6093769;23;19958;-94
2021/12/29 11:41:36;;;;;;;;;;;16.00;99.90;;;;;;6093400;23;19921;-92
2021/12/29 11:44:25;;;;;;;;;;;16.00;99.90;;;;;;6242465;23;20344;-95
2021/12/29 11:47:20;;;;;;;;;;;;;;;;;;;;;
2021/12/29 11:59:49;;;;;;;;;;;;;;;;;;;;;
2021/12/29 12:09:10;;;;;;;;;;;16.30;99.90;;;;;;5897681;24;19979;-93
2021/12/29 12:34:36;;;;;;;;;;;16.20;99.90;;;;;;5764114;24;19945;-93
2021/12/29 12:43:36;;;;;;;;;;;16.20;99.90;;;;;;5843170;24;19979;-92
2021/12/29 12:58:33;;;;;;;;;;;;;;;;;;;;;
2021/12/29 13:01:20;;;;;;;;;;;16.20;99.90;;;;;;5968787;23;19977;-92
2021/12/29 13:03:51;;;;;;;;;;;16.30;99.90;;;;;;6036346;23;19945;-93
2021/12/29 13:06:38;;;;;;;;;;;16.20;99.90;;;;;;6035542;23;20240;-93
2021/12/29 13:09:20;;;;;;;;;;;;;;;;;;;;;
2021/12/29 13:11:48;;;;;;;;;;;16.20;99.90;;;;;;6035007;23;20569;-94
2021/12/29 13:14:23;;;;;;;;;;;16.30;99.90;;;;;;6013833;23;19921;-95
2021/12/29 13:16:59;;;;;;;;;;;16.30;99.90;;;;;;6059796;23;19905;-92
2021/12/29 13:19:37;;;;;;;;;;;;;;;;;;;;;
2021/12/29 13:28:25;;;;;;;;;;;16.40;99.90;;;;;;6161190;23;19951;-95
2021/12/29 13:31:21;;;;;;;;;;;;;;;;;;;;;
2021/12/29 13:33:54;;;;;;;;;;;16.50;99.90;;;;;;6233778;23;19907;-93
2021/12/29 13:36:46;;;;;;;;;;;16.40;99.90;;;;;;6216078;23;19908;-94
2021/12/29 13:42:48;;;;;;;;;;;;;;;;;;;;;
2021/12/29 13:51:25;;;;;;;;;;;16.40;99.90;;;;;;6196455;23;19904;-92
2021/12/29 13:54:27;;;;;;;;;;;16.30;99.90;;;;;;6307669;22;20425;-93
2021/12/29 13:57:13;;;;;;;;;;;16.20;99.90;;;;;;6340718;22;20326;-91
2021/12/29 13:59:44;;;;;;;;;;;16.30;99.90;;;;;;6340089;22;19981;-91
2021/12/29 14:02:12;;;;;;;;;;;16.30;99.90;;;;;;6341148;22;20372;-93
2021/12/29 14:05:08;;;;;;;;;;;;;;;;;;;;;
2021/12/29 14:07:36;;;;;;;;;;;16.30;99.90;;;;;;6370790;22;19941;-93
2021/12/29 14:10:04;;;;;;;;;;;16.30;99.90;;;;;;6342652;22;19902;-92
2021/12/29 14:12:36;;;;;;;;;;;16.30;99.90;;;;;;6340499;22;19902;-94
2021/12/29 14:15:20;;;;;;;;;;;;;;;;;;;;;
2021/12/29 14:17:52;;;;;;;;;;;16.30;99.90;;;;;;6368478;22;19977;-94
2021/12/29 14:20:20;;;;;;;;;;;16.40;99.90;;;;;;6340032;22;19921;-92
2021/12/29 14:22:48;;;;;;;;;;;16.30;99.90;;;;;;6341379;22;19955;-94
2021/12/29 14:25:15;;;;;;;;;;;16.30;99.90;;;;;;6342770;22;19902;-92
2021/12/29 14:27:49;;;;;;;;;;;16.20;99.90;;;;;;6344049;22;20338;-94
2021/12/29 14:30:19;;;;;;;;;;;16.30;99.90;;;;;;6344530;22;19937;-95
2021/12/29 14:36:04;;;;;;;;;;;16.20;99.90;;;;;;6095079;23;19909;-90
2021/12/29 14:38:36;;;;;;;;;;;16.20;99.90;;;;;;6212733;23;19904;-94
2021/12/29 14:41:29;;;;;;;;;;;16.20;99.90;;;;;;6294533;22;19937;-92
2021/12/29 14:47:24;;;;;;;;;;;16.30;99.90;;;;;;6354671;22;19925;-94
2021/12/29 14:50:20;;;;;;;;;;;16.30;99.90;;;;;;6273461;22;19907;-95
2021/12/29 14:52:58;;;;;;;;;;;;;;;;;;;;;
2021/12/29 15:01:49;;;;;;;;;;;;;;;;;;;;;
2021/12/29 15:07:25;;;;;;;;;;;16.30;99.90;;;;;;6128736;23;19979;-93
2021/12/29 15:10:13;;;;;;;;;;;16.30;99.90;;;;;;6215529;23;20386;-94
2021/12/29 15:13:09;;;;;;;;;;;;;;;;;;;;;
2021/12/29 15:16:00;;;;;;;;;;;16.30;99.90;;;;;;6200960;23;19978;-93
2021/12/29 15:30:48;;;;;;;;;;;16.30;99.90;;;;;;6009310;23;19906;-93
2021/12/29 15:33:38;;;;;;;;;;;16.20;99.90;;;;;;5975853;23;19921;-93
2021/12/29 15:39:29;;;;;;;;;;;;;;;;;;;;;
2021/12/29 15:42:37;;;;;;;;;;;;;;;;;;;;;
2021/12/29 15:45:07;;;;;;;;;;;16.10;99.90;;;;;;6095678;23;19989;-94
2021/12/29 15:47:37;;;;;;;;;;;16.20;99.90;;;;;;6102968;23;19912;-92
2021/12/29 15:50:25;;;;;;;;;;;16.20;99.90;;;;;;6192309;23;19904;-94
2021/12/29 15:56:00;;;;;;;;;;;16.20;99.90;;;;;;6106215;23;19932;-93
2021/12/29 15:58:28;;;;;;;;;;;16.20;99.90;;;;;;6167828;23;19912;-94
2021/12/29 16:01:14;;;;;;;;;;;16.20;99.90;;;;;;6192207;23;19911;-95
2021/12/29 16:03:56;;;;;;;;;;;;;;;;;;;;;
2021/12/29 16:09:55;;;;;;;;;;;;;;;;;;;;;
2021/12/29 16:12:25;;;;;;;;;;;16.00;99.90;;;;;;6382443;22;19937;-92
2021/12/29 16:15:11;;;;;;;;;;;16.00;99.90;;;;;;6375592;22;20267;-94
2021/12/29 16:18:04;;;;;;;;;;;16.10;99.90;;;;;;6314558;22;19907;-93
2021/12/29 16:23:55;;;;;;;;;;;;;;;;;;;;;
2021/12/29 16:26:21;;;;;;;;;;;15.90;99.90;;;;;;6211229;23;19999;-92
2021/12/29 16:28:52;;;;;;;;;;;15.90;99.90;;;;;;6305819;22;19907;-91
2021/12/29 16:31:28;;;;;;;;;;;16.00;99.90;;;;;;6340145;22;19902;-91
2021/12/29 16:34:23;;;;;;;;;;;;;;;;;;;;;
2021/12/29 17:33:33;;;;;;;;;;;;;;;;;;;;;
2021/12/29 17:35:59;;;;;;;;;;;15.80;99.90;;;;;;5885851;24;19995;-93
2021/12/29 17:38:30;;;;;;;;;;;15.70;99.90;;;;;;5899497;24;19987;-90
2021/12/29 17:41:11;;;;;;;;;;;;;;;;;;;;;
2021/12/29 17:43:59;;;;;;;;;;;;;;;;;;;;;
2021/12/29 18:13:16;;;;;;;;;;;;;;;;;;;;;
2021/12/29 18:25:05;;;;;;;;;;;15.50;99.90;;;;;;5896986;24;19999;-93
2021/12/29 18:27:33;;;;;;;;;;;15.40;99.90;;;;;;5920805;24;20432;-94
2021/12/29 18:29:59;;;;;;;;;;;15.50;99.90;;;;;;6116213;22;19902;-92
2021/12/29 18:32:26;;;;;;;;;;;15.50;99.90;;;;;;6346614;22;20254;-91
2021/12/29 18:34:55;;;;;;;;;;;15.40;99.90;;;;;;6342930;22;19914;-93
2021/12/29 18:37:37;;;;;;;;;;;15.50;99.90;;;;;;6380223;22;19928;-91
2021/12/29 18:40:16;;;;;;;;;;;15.40;99.90;;;;;;6286891;22;19903;-91
2021/12/29 18:42:42;;;;;;;;;;;15.50;99.90;;;;;;6279278;22;19907;-92
2021/12/29 18:45:11;;;;;;;;;;;15.50;99.90;;;;;;6275791;22;19978;-92
2021/12/29 18:47:37;;;;;;;;;;;15.50;99.90;;;;;;6278217;22;19909;-92
2021/12/29 18:50:04;;;;;;;;;;;15.50;99.90;;;;;;6276878;22;20408;-92
2021/12/29 18:52:38;;;;;;;;;;;15.40;99.90;;;;;;6279628;22;19911;-91
2021/12/29 18:55:25;;;;;;;;;;;;;;;;;;;;;
2021/12/29 18:57:51;;;;;;;;;;;15.50;99.90;;;;;;6276483;22;19959;-93
2021/12/29 19:00:48;;;;;;;;;;;15.50;99.90;;;;;;6277801;22;19903;-93
2021/12/29 19:03:39;;;;;;;;;;;15.50;99.90;;;;;;6278246;22;19922;-93
2021/12/29 19:06:18;;;;;;;;;;;15.50;99.90;;;;;;6314282;22;19910;-92
2021/12/29 19:08:49;;;;;;;;;;;15.50;99.90;;;;;;6320003;22;19930;-92
2021/12/29 19:11:35;;;;;;;;;;;15.50;99.90;;;;;;6306458;22;19928;-92
2021/12/29 19:14:01;;;;;;;;;;;15.50;99.90;;;;;;6321153;22;19910;-91
2021/12/29 19:16:46;;;;;;;;;;;;;;;;;;;;;
2021/12/29 19:19:15;;;;;;;;;;;15.50;99.90;;;;;;6353674;22;19917;-94
2021/12/29 19:21:42;;;;;;;;;;;15.50;99.90;;;;;;6320971;22;19913;-94
2021/12/29 19:24:08;;;;;;;;;;;15.50;99.90;;;;;;6317948;22;19902;-95
2021/12/29 19:26:34;;;;;;;;;;;15.50;99.90;;;;;;6312581;22;19985;-94
2021/12/29 19:28:59;;;;;;;;;;;15.50;99.90;;;;;;6342812;22;19891;-93
2021/12/29 19:31:29;;;;;;;;;;;15.40;99.90;;;;;;6323902;22;19935;-93
2021/12/29 19:34:29;;;;;;;;;;;;;;;;;;;;;
2021/12/29 19:37:09;;;;;;;;;;;15.50;99.90;;;;;;6272399;22;19902;-93
2021/12/29 19:39:49;;;;;;;;;;;15.50;99.90;;;;;;6359349;22;19962;-92
2021/12/29 19:42:23;;;;;;;;;;;15.50;99.90;;;;;;6366024;22;19946;-92
2021/12/29 19:44:51;;;;;;;;;;;15.50;99.90;;;;;;6354204;22;19902;-91
2021/12/29 19:47:18;;;;;;;;;;;15.50;99.90;;;;;;6343686;22;19902;-92
2021/12/29 19:50:14;;;;;;;;;;;;;;;;;;;;;
2021/12/29 19:52:46;;;;;;;;;;;15.60;99.90;;;;;;6363570;22;19972;-91
2021/12/29 19:55:25;;;;;;;;;;;15.50;99.90;;;;;;6343026;22;19914;-93
2021/12/29 19:58:20;;;;;;;;;;;15.60;99.90;;;;;;6342852;22;20592;-94
2021/12/29 20:01:19;;;;;;;;;;;15.50;99.90;;;;;;6369110;22;19954;-92
2021/12/29 20:03:45;;;;;;;;;;;15.50;99.90;;;;;;6253834;22;19918;-92
2021/12/29 20:06:31;;;;;;;;;;;15.50;99.90;;;;;;6226727;22;19907;-92
2021/12/29 20:09:02;;;;;;;;;;;15.50;99.90;;;;;;6250406;22;19903;-92
2021/12/29 20:11:27;;;;;;;;;;;15.50;99.90;;;;;;6253430;22;20217;-91
2021/12/29 20:14:03;;;;;;;;;;;15.50;99.90;;;;;;6285819;22;19911;-91
2021/12/29 20:16:33;;;;;;;;;;;15.50;99.90;;;;;;6252988;22;19907;-93
2021/12/29 20:19:00;;;;;;;;;;;15.40;99.90;;;;;;6252465;22;19904;-91
2021/12/29 20:21:26;;;;;;;;;;;15.40;99.90;;;;;;6280232;22;19988;-91
2021/12/29 20:23:54;;;;;;;;;;;15.50;99.90;;;;;;6251474;22;19907;-92
2021/12/29 20:26:46;;;;;;;;;;;;;;;;;;;;;
2021/12/29 20:29:40;;;;;;;;;;;15.50;99.90;;;;;;6279275;22;19978;-92
2021/12/29 20:32:09;;;;;;;;;;;15.50;99.90;;;;;;6251350;22;20324;-92
2021/12/29 20:34:40;;;;;;;;;;;15.50;99.90;;;;;;6293325;22;19978;-93
2021/12/29 20:37:26;;;;;;;;;;;15.50;99.90;;;;;;6343007;22;19985;-93
2021/12/29 20:39:52;;;;;;;;;;;15.50;99.90;;;;;;6347415;22;19910;-91